sensor_id;sensor_type;location;lat;lon;timestamp;temperature;humidity
13721;DHT22;6932;51.438;5.470;2023-01-29T00:00:05;8.30;73.10
13721;DHT22;6932;51.438;5.470;2023-01-29T00:02:35;8.30;73.10
13721;DHT22;6932;51.438;5.470;2023-01-29T00:05:02;8.30;73.10
13721;DHT22;6932;51.438;5.470;2023-01-29T00:07:30;8.30;73.10
13721;DHT22;6932;51.438;5.470;2023-01-29T00:09:55;8.30;73.10
13721;DHT22;6932;51.438;5.470;2023-01-29T00:12:21;8.30;73.00
13721;DHT22;6932;51.438;5.470;2023-01-29T00:14:48;8.20;73.00
13721;DHT22;6932;51.438;5.470;2023-01-29T00:17:14;8.20;73.00
13721;DHT22;6932;51.438;5.470;2023-01-29T00:19:39;8.30;73.10
13721;DHT22;6932;51.438;5.470;2023-01-29T00:22:05;8.20;73.00
13721;DHT22;6932;51.438;5.470;2023-01-29T00:24:31;8.30;73.10
13721;DHT22;6932;51.438;5.470;2023-01-29T00:26:56;8.20;73.10
13721;DHT22;6932;51.438;5.470;2023-01-29T00:29:22;8.20;73.10
13721;DHT22;6932;51.438;5.470;2023-01-29T00:31:48;8.20;73.10
13721;DHT22;6932;51.438;5.470;2023-01-29T00:34:14;8.20;73.10
13721;DHT22;6932;51.438;5.470;2023-01-29T00:36:39;8.20;73.10
13721;DHT22;6932;51.438;5.470;2023-01-29T00:39:05;8.20;73.00
13721;DHT22;6932;51.438;5.470;2023-01-29T00:41:36;8.30;73.10
13721;DHT22;6932;51.438;5.470;2023-01-29T00:44:20;8.20;73.10
13721;DHT22;6932;51.438;5.470;2023-01-29T00:47:05;8.20;73.10
13721;DHT22;6932;51.438;5.470;2023-01-29T00:49:55;8.20;73.10
13721;DHT22;6932;51.438;5.470;2023-01-29T00:52:22;8.20;73.10
13721;DHT22;6932;51.438;5.470;2023-01-29T00:54:48;8.20;73.10
13721;DHT22;6932;51.438;5.470;2023-01-29T00:57:14;8.20;73.20
13721;DHT22;6932;51.438;5.470;2023-01-29T00:59:40;8.20;73.20
13721;DHT22;6932;51.438;5.470;2023-01-29T01:02:06;8.20;73.20
13721;DHT22;6932;51.438;5.470;2023-01-29T01:04:50;8.20;73.20
13721;DHT22;6932;51.438;5.470;2023-01-29T01:07:16;8.10;73.20
13721;DHT22;6932;51.438;5.470;2023-01-29T01:09:42;8.10;73.20
13721;DHT22;6932;51.438;5.470;2023-01-29T01:12:27;8.20;73.30
13721;DHT22;6932;51.438;5.470;2023-01-29T01:14:52;8.10;73.20
13721;DHT22;6932;51.438;5.470;2023-01-29T01:17:18;8.10;73.30
13721;DHT22;6932;51.438;5.470;2023-01-29T01:19:44;8.10;73.30
13721;DHT22;6932;51.438;5.470;2023-01-29T01:22:10;8.10;73.30
13721;DHT22;6932;51.438;5.470;2023-01-29T01:24:37;8.10;73.30
13721;DHT22;6932;51.438;5.470;2023-01-29T01:27:03;8.10;73.40
13721;DHT22;6932;51.438;5.470;2023-01-29T01:29:29;8.10;73.40
13721;DHT22;6932;51.438;5.470;2023-01-29T01:31:54;8.10;73.40
13721;DHT22;6932;51.438;5.470;2023-01-29T01:34:20;8.10;73.40
13721;DHT22;6932;51.438;5.470;2023-01-29T01:36:47;8.10;73.40
13721;DHT22;6932;51.438;5.470;2023-01-29T01:39:13;8.10;73.40
13721;DHT22;6932;51.438;5.470;2023-01-29T01:41:38;8.10;73.40
13721;DHT22;6932;51.438;5.470;2023-01-29T01:44:05;8.10;73.40
13721;DHT22;6932;51.438;5.470;2023-01-29T01:46:36;8.10;73.30
13721;DHT22;6932;51.438;5.470;2023-01-29T01:49:13;8.10;73.20
13721;DHT22;6932;51.438;5.470;2023-01-29T01:51:45;8.10;73.20
13721;DHT22;6932;51.438;5.470;2023-01-29T01:54:24;8.10;73.20
13721;DHT22;6932;51.438;5.470;2023-01-29T01:56:59;8.10;73.20
13721;DHT22;6932;51.438;5.470;2023-01-29T01:59:42;8.10;73.20
13721;DHT22;6932;51.438;5.470;2023-01-29T02:02:13;8.10;73.10
13721;DHT22;6932;51.438;5.470;2023-01-29T02:04:59;8.10;73.20
13721;DHT22;6932;51.438;5.470;2023-01-29T02:07:45;8.10;73.20
13721;DHT22;6932;51.438;5.470;2023-01-29T02:10:45;8.10;73.30
13721;DHT22;6932;51.438;5.470;2023-01-29T02:13:12;8.10;73.40
13721;DHT22;6932;51.438;5.470;2023-01-29T02:15:40;8.10;73.30
13721;DHT22;6932;51.438;5.470;2023-01-29T02:18:11;8.10;73.30
13721;DHT22;6932;51.438;5.470;2023-01-29T02:20:41;8.10;73.30
13721;DHT22;6932;51.438;5.470;2023-01-29T02:29:09;8.00;73.30
13721;DHT22;6932;51.438;5.470;2023-01-29T02:32:14;8.10;73.30
13721;DHT22;6932;51.438;5.470;2023-01-29T02:46:08;8.00;73.30
13721;DHT22;6932;51.438;5.470;2023-01-29T02:51:37;8.00;73.30
13721;DHT22;6932;51.438;5.470;2023-01-29T02:54:20;8.00;73.30
13721;DHT22;6932;51.438;5.470;2023-01-29T02:59:39;7.90;73.30
13721;DHT22;6932;51.438;5.470;2023-01-29T03:02:17;7.90;73.30
13721;DHT22;6932;51.438;5.470;2023-01-29T03:04:55;7.90;73.30
13721;DHT22;6932;51.438;5.470;2023-01-29T03:07:29;7.90;73.30
13721;DHT22;6932;51.438;5.470;2023-01-29T03:13:28;7.90;73.30
13721;DHT22;6932;51.438;5.470;2023-01-29T03:16:03;7.90;73.30
13721;DHT22;6932;51.438;5.470;2023-01-29T03:18:57;7.90;73.40
13721;DHT22;6932;51.438;5.470;2023-01-29T03:21:37;7.90;73.50
13721;DHT22;6932;51.438;5.470;2023-01-29T03:24:21;7.80;73.50
13721;DHT22;6932;51.438;5.470;2023-01-29T03:27:11;7.80;73.50
13721;DHT22;6932;51.438;5.470;2023-01-29T03:29:59;7.80;73.50
13721;DHT22;6932;51.438;5.470;2023-01-29T03:32:45;7.80;73.60
13721;DHT22;6932;51.438;5.470;2023-01-29T03:35:18;7.80;73.60
13721;DHT22;6932;51.438;5.470;2023-01-29T03:38:00;7.80;73.60
13721;DHT22;6932;51.438;5.470;2023-01-29T03:40:31;7.80;73.60
13721;DHT22;6932;51.438;5.470;2023-01-29T03:43:19;7.80;73.70
13721;DHT22;6932;51.438;5.470;2023-01-29T03:49:55;7.80;73.60
13721;DHT22;6932;51.438;5.470;2023-01-29T03:52:30;7.80;73.70
13721;DHT22;6932;51.438;5.470;2023-01-29T03:55:19;7.80;73.80
13721;DHT22;6932;51.438;5.470;2023-01-29T03:58:03;7.80;73.90
13721;DHT22;6932;51.438;5.470;2023-01-29T04:00:59;7.80;74.00
13721;DHT22;6932;51.438;5.470;2023-01-29T04:03:36;7.80;74.00
13721;DHT22;6932;51.438;5.470;2023-01-29T04:08:57;7.90;74.10
13721;DHT22;6932;51.438;5.470;2023-01-29T04:11:28;7.90;74.20
13721;DHT22;6932;51.438;5.470;2023-01-29T04:13:56;7.90;74.20
13721;DHT22;6932;51.438;5.470;2023-01-29T04:16:33;7.90;74.20
13721;DHT22;6932;51.438;5.470;2023-01-29T04:19:04;7.90;74.20
13721;DHT22;6932;51.438;5.470;2023-01-29T04:21:30;7.90;74.20
13721;DHT22;6932;51.438;5.470;2023-01-29T04:23:57;8.00;74.20
13721;DHT22;6932;51.438;5.470;2023-01-29T04:32:30;8.00;74.20
13721;DHT22;6932;51.438;5.470;2023-01-29T04:36:00;8.00;74.20
13721;DHT22;6932;51.438;5.470;2023-01-29T04:38:28;8.00;74.20
13721;DHT22;6932;51.438;5.470;2023-01-29T04:41:14;8.10;74.20
13721;DHT22;6932;51.438;5.470;2023-01-29T04:44:07;8.10;74.20
13721;DHT22;6932;51.438;5.470;2023-01-29T04:46:48;8.10;74.30
13721;DHT22;6932;51.438;5.470;2023-01-29T04:49:33;8.10;74.20
13721;DHT22;6932;51.438;5.470;2023-01-29T04:57:24;8.20;74.40
13721;DHT22;6932;51.438;5.470;2023-01-29T05:00:04;8.20;74.40
13721;DHT22;6932;51.438;5.470;2023-01-29T05:02:37;8.20;74.40
13721;DHT22;6932;51.438;5.470;2023-01-29T05:05:05;8.20;74.40
13721;DHT22;6932;51.438;5.470;2023-01-29T05:07:34;8.20;74.50
13721;DHT22;6932;51.438;5.470;2023-01-29T05:10:07;8.30;74.60
13721;DHT22;6932;51.438;5.470;2023-01-29T05:12:36;8.30;74.60
13721;DHT22;6932;51.438;5.470;2023-01-29T05:15:07;8.30;74.60
13721;DHT22;6932;51.438;5.470;2023-01-29T05:17:35;8.30;74.70
13721;DHT22;6932;51.438;5.470;2023-01-29T05:20:01;8.30;74.60
13721;DHT22;6932;51.438;5.470;2023-01-29T05:22:28;8.40;74.70
13721;DHT22;6932;51.438;5.470;2023-01-29T05:24:55;8.40;74.70
13721;DHT22;6932;51.438;5.470;2023-01-29T05:27:25;8.40;74.60
13721;DHT22;6932;51.438;5.470;2023-01-29T05:30:17;8.40;74.60
13721;DHT22;6932;51.438;5.470;2023-01-29T05:32:43;8.50;74.60
13721;DHT22;6932;51.438;5.470;2023-01-29T05:35:08;8.50;74.70
13721;DHT22;6932;51.438;5.470;2023-01-29T05:37:34;8.50;74.70
13721;DHT22;6932;51.438;5.470;2023-01-29T05:40:00;8.50;74.70
13721;DHT22;6932;51.438;5.470;2023-01-29T05:42:26;8.50;74.70
13721;DHT22;6932;51.438;5.470;2023-01-29T05:44:51;8.50;74.70
13721;DHT22;6932;51.438;5.470;2023-01-29T05:47:19;8.50;74.60
13721;DHT22;6932;51.438;5.470;2023-01-29T05:49:45;8.60;74.60
13721;DHT22;6932;51.438;5.470;2023-01-29T05:52:10;8.60;74.70
13721;DHT22;6932;51.438;5.470;2023-01-29T05:54:36;8.60;74.70
13721;DHT22;6932;51.438;5.470;2023-01-29T05:57:02;8.60;74.70
13721;DHT22;6932;51.438;5.470;2023-01-29T05:59:28;8.60;74.70
13721;DHT22;6932;51.438;5.470;2023-01-29T06:01:58;8.60;74.70
13721;DHT22;6932;51.438;5.470;2023-01-29T06:04:24;8.60;74.80
13721;DHT22;6932;51.438;5.470;2023-01-29T06:06:50;8.70;74.80
13721;DHT22;6932;51.438;5.470;2023-01-29T06:09:16;8.60;74.80
13721;DHT22;6932;51.438;5.470;2023-01-29T06:11:41;8.70;74.80
13721;DHT22;6932;51.438;5.470;2023-01-29T06:14:07;8.70;74.80
13721;DHT22;6932;51.438;5.470;2023-01-29T06:16:33;8.70;74.80
13721;DHT22;6932;51.438;5.470;2023-01-29T06:18:58;8.70;74.90
13721;DHT22;6932;51.438;5.470;2023-01-29T06:21:24;8.70;74.80
13721;DHT22;6932;51.438;5.470;2023-01-29T06:23:52;8.70;74.80
13721;DHT22;6932;51.438;5.470;2023-01-29T06:26:18;8.80;74.90
13721;DHT22;6932;51.438;5.470;2023-01-29T06:28:47;8.80;74.90
13721;DHT22;6932;51.438;5.470;2023-01-29T06:31:14;8.80;74.80
13721;DHT22;6932;51.438;5.470;2023-01-29T06:33:39;8.80;74.80
13721;DHT22;6932;51.438;5.470;2023-01-29T06:36:05;8.80;74.80
13721;DHT22;6932;51.438;5.470;2023-01-29T06:38:31;8.80;74.80
13721;DHT22;6932;51.438;5.470;2023-01-29T06:40:58;8.80;74.80
13721;DHT22;6932;51.438;5.470;2023-01-29T06:43:24;8.80;74.80
13721;DHT22;6932;51.438;5.470;2023-01-29T06:45:54;8.80;74.80
13721;DHT22;6932;51.438;5.470;2023-01-29T06:48:22;8.80;74.80
13721;DHT22;6932;51.438;5.470;2023-01-29T06:50:49;8.90;74.80
13721;DHT22;6932;51.438;5.470;2023-01-29T06:53:16;8.90;74.80
13721;DHT22;6932;51.438;5.470;2023-01-29T06:55:43;8.90;74.80
13721;DHT22;6932;51.438;5.470;2023-01-29T06:58:15;8.90;74.80
13721;DHT22;6932;51.438;5.470;2023-01-29T07:00:41;8.90;74.80
13721;DHT22;6932;51.438;5.470;2023-01-29T07:03:08;8.90;74.80
13721;DHT22;6932;51.438;5.470;2023-01-29T07:05:35;8.90;74.80
13721;DHT22;6932;51.438;5.470;2023-01-29T07:08:01;8.90;74.80
13721;DHT22;6932;51.438;5.470;2023-01-29T07:10:27;8.90;74.80
13721;DHT22;6932;51.438;5.470;2023-01-29T07:12:52;8.90;74.70
13721;DHT22;6932;51.438;5.470;2023-01-29T07:15:18;8.90;74.70
13721;DHT22;6932;51.438;5.470;2023-01-29T07:17:56;8.90;74.70
13721;DHT22;6932;51.438;5.470;2023-01-29T07:20:24;8.90;74.70
13721;DHT22;6932;51.438;5.470;2023-01-29T07:22:51;8.90;74.70
13721;DHT22;6932;51.438;5.470;2023-01-29T07:25:17;8.90;74.80
13721;DHT22;6932;51.438;5.470;2023-01-29T07:27:43;8.90;74.80
13721;DHT22;6932;51.438;5.470;2023-01-29T07:30:10;9.00;74.90
13721;DHT22;6932;51.438;5.470;2023-01-29T07:32:36;9.00;74.90
13721;DHT22;6932;51.438;5.470;2023-01-29T07:35:02;9.00;74.90
13721;DHT22;6932;51.438;5.470;2023-01-29T07:37:28;9.00;74.80
13721;DHT22;6932;51.438;5.470;2023-01-29T07:39:53;9.00;74.80
13721;DHT22;6932;51.438;5.470;2023-01-29T07:42:19;9.00;74.80
13721;DHT22;6932;51.438;5.470;2023-01-29T07:44:45;9.00;75.50
13721;DHT22;6932;51.438;5.470;2023-01-29T07:47:11;9.00;74.80
13721;DHT22;6932;51.438;5.470;2023-01-29T07:49:36;9.00;74.80
13721;DHT22;6932;51.438;5.470;2023-01-29T07:52:02;9.00;74.80
13721;DHT22;6932;51.438;5.470;2023-01-29T07:54:29;9.00;74.80
13721;DHT22;6932;51.438;5.470;2023-01-29T07:56:55;9.00;74.80
13721;DHT22;6932;51.438;5.470;2023-01-29T07:59:21;9.00;74.80
13721;DHT22;6932;51.438;5.470;2023-01-29T08:01:46;9.00;74.80
13721;DHT22;6932;51.438;5.470;2023-01-29T08:04:12;9.00;74.80
13721;DHT22;6932;51.438;5.470;2023-01-29T08:06:38;9.00;74.80
13721;DHT22;6932;51.438;5.470;2023-01-29T08:09:04;9.00;74.80
13721;DHT22;6932;51.438;5.470;2023-01-29T08:11:29;9.00;74.80
13721;DHT22;6932;51.438;5.470;2023-01-29T08:13:55;9.00;74.80
13721;DHT22;6932;51.438;5.470;2023-01-29T08:16:22;9.00;74.80
13721;DHT22;6932;51.438;5.470;2023-01-29T08:18:47;9.00;74.80
13721;DHT22;6932;51.438;5.470;2023-01-29T08:21:14;9.10;74.80
13721;DHT22;6932;51.438;5.470;2023-01-29T08:23:40;9.10;74.80
13721;DHT22;6932;51.438;5.470;2023-01-29T08:26:06;9.10;74.80
13721;DHT22;6932;51.438;5.470;2023-01-29T08:28:31;9.10;74.80
13721;DHT22;6932;51.438;5.470;2023-01-29T08:30:57;9.10;74.80
13721;DHT22;6932;51.438;5.470;2023-01-29T08:33:23;9.10;74.80
13721;DHT22;6932;51.438;5.470;2023-01-29T08:35:52;9.10;74.80
13721;DHT22;6932;51.438;5.470;2023-01-29T08:38:18;9.10;74.70
13721;DHT22;6932;51.438;5.470;2023-01-29T08:40:43;9.10;74.70
13721;DHT22;6932;51.438;5.470;2023-01-29T08:43:11;9.10;74.70
13721;DHT22;6932;51.438;5.470;2023-01-29T08:45:40;9.10;74.70
13721;DHT22;6932;51.438;5.470;2023-01-29T08:48:07;9.10;74.70
13721;DHT22;6932;51.438;5.470;2023-01-29T08:50:34;9.10;74.70
13721;DHT22;6932;51.438;5.470;2023-01-29T08:53:02;9.10;74.70
13721;DHT22;6932;51.438;5.470;2023-01-29T08:55:29;9.10;74.60
13721;DHT22;6932;51.438;5.470;2023-01-29T08:57:55;9.10;74.70
13721;DHT22;6932;51.438;5.470;2023-01-29T09:00:24;9.10;74.70
13721;DHT22;6932;51.438;5.470;2023-01-29T09:02:50;9.10;74.70
13721;DHT22;6932;51.438;5.470;2023-01-29T09:05:15;9.10;74.70
13721;DHT22;6932;51.438;5.470;2023-01-29T09:07:41;9.10;74.70
13721;DHT22;6932;51.438;5.470;2023-01-29T09:10:07;9.10;74.80
13721;DHT22;6932;51.438;5.470;2023-01-29T09:12:33;9.20;74.80
13721;DHT22;6932;51.438;5.470;2023-01-29T09:14:59;9.20;74.80
13721;DHT22;6932;51.438;5.470;2023-01-29T09:17:25;9.20;74.80
13721;DHT22;6932;51.438;5.470;2023-01-29T09:19:51;9.20;74.80
13721;DHT22;6932;51.438;5.470;2023-01-29T09:22:18;9.20;74.80
13721;DHT22;6932;51.438;5.470;2023-01-29T09:24:44;9.20;74.80
13721;DHT22;6932;51.438;5.470;2023-01-29T09:27:09;9.20;74.70
13721;DHT22;6932;51.438;5.470;2023-01-29T09:29:35;9.20;74.70
13721;DHT22;6932;51.438;5.470;2023-01-29T09:32:02;9.20;74.70
13721;DHT22;6932;51.438;5.470;2023-01-29T09:34:29;9.30;74.70
13721;DHT22;6932;51.438;5.470;2023-01-29T09:36:55;9.30;74.70
13721;DHT22;6932;51.438;5.470;2023-01-29T09:39:20;9.30;74.60
13721;DHT22;6932;51.438;5.470;2023-01-29T09:41:55;9.30;74.60
13721;DHT22;6932;51.438;5.470;2023-01-29T09:44:28;9.30;74.50
13721;DHT22;6932;51.438;5.470;2023-01-29T09:47:12;9.30;74.50
13721;DHT22;6932;51.438;5.470;2023-01-29T09:49:48;9.30;74.40
13721;DHT22;6932;51.438;5.470;2023-01-29T09:52:29;9.30;74.40
13721;DHT22;6932;51.438;5.470;2023-01-29T09:58:21;9.40;74.40
13721;DHT22;6932;51.438;5.470;2023-01-29T10:03:58;9.40;74.40
13721;DHT22;6932;51.438;5.470;2023-01-29T10:23:51;9.40;74.40
13721;DHT22;6932;51.438;5.470;2023-01-29T10:26:24;9.40;74.40
13721;DHT22;6932;51.438;5.470;2023-01-29T10:28:54;9.40;74.40
13721;DHT22;6932;51.438;5.470;2023-01-29T10:31:30;9.40;74.50
13721;DHT22;6932;51.438;5.470;2023-01-29T10:36:53;9.40;74.60
13721;DHT22;6932;51.438;5.470;2023-01-29T10:39:25;9.50;74.60
13721;DHT22;6932;51.438;5.470;2023-01-29T10:42:01;9.50;74.60
13721;DHT22;6932;51.438;5.470;2023-01-29T10:53:47;9.50;74.60
13721;DHT22;6932;51.438;5.470;2023-01-29T10:56:38;9.50;74.60
13721;DHT22;6932;51.438;5.470;2023-01-29T10:59:41;9.60;74.60
13721;DHT22;6932;51.438;5.470;2023-01-29T11:02:15;9.60;74.50
13721;DHT22;6932;51.438;5.470;2023-01-29T11:04:44;9.60;74.50
13721;DHT22;6932;51.438;5.470;2023-01-29T11:07:11;9.60;74.50
13721;DHT22;6932;51.438;5.470;2023-01-29T11:12:30;9.70;75.20
13721;DHT22;6932;51.438;5.470;2023-01-29T11:15:23;9.70;74.50
13721;DHT22;6932;51.438;5.470;2023-01-29T11:20:30;9.80;74.40
13721;DHT22;6932;51.438;5.470;2023-01-29T11:22:57;9.80;74.40
13721;DHT22;6932;51.438;5.470;2023-01-29T11:25:24;9.80;74.40
13721;DHT22;6932;51.438;5.470;2023-01-29T11:27:56;9.80;74.40
13721;DHT22;6932;51.438;5.470;2023-01-29T11:30:34;9.80;74.30
13721;DHT22;6932;51.438;5.470;2023-01-29T11:33:20;9.90;74.30
13721;DHT22;6932;51.438;5.470;2023-01-29T11:35:48;9.90;74.30
13721;DHT22;6932;51.438;5.470;2023-01-29T11:38:24;9.90;74.20
13721;DHT22;6932;51.438;5.470;2023-01-29T11:40:52;9.90;74.20
13721;DHT22;6932;51.438;5.470;2023-01-29T11:43:29;10.00;74.30
13721;DHT22;6932;51.438;5.470;2023-01-29T11:46:04;10.00;74.20
13721;DHT22;6932;51.438;5.470;2023-01-29T11:48:45;10.00;74.20
13721;DHT22;6932;51.438;5.470;2023-01-29T11:51:37;10.00;74.20
13721;DHT22;6932;51.438;5.470;2023-01-29T11:54:09;10.00;74.10
13721;DHT22;6932;51.438;5.470;2023-01-29T11:56:44;10.00;74.00
13721;DHT22;6932;51.438;5.470;2023-01-29T11:59:42;10.10;74.00
13721;DHT22;6932;51.438;5.470;2023-01-29T12:02:47;10.10;74.00
13721;DHT22;6932;51.438;5.470;2023-01-29T12:05:17;10.10;73.90
13721;DHT22;6932;51.438;5.470;2023-01-29T12:07:47;10.20;74.00
13721;DHT22;6932;51.438;5.470;2023-01-29T12:10:39;10.20;74.00
13721;DHT22;6932;51.438;5.470;2023-01-29T12:15:39;10.20;73.90
13721;DHT22;6932;51.438;5.470;2023-01-29T12:18:24;10.30;74.00
13721;DHT22;6932;51.438;5.470;2023-01-29T12:21:18;10.30;74.00
13721;DHT22;6932;51.438;5.470;2023-01-29T12:24:42;10.30;73.80
13721;DHT22;6932;51.438;5.470;2023-01-29T12:27:18;10.30;74.00
13721;DHT22;6932;51.438;5.470;2023-01-29T12:30:15;10.40;73.80
13721;DHT22;6932;51.438;5.470;2023-01-29T12:33:35;10.40;73.70
13721;DHT22;6932;51.438;5.470;2023-01-29T12:35:52;10.40;73.60
13721;DHT22;6932;51.438;5.470;2023-01-29T12:38:22;10.40;73.60
13721;DHT22;6932;51.438;5.470;2023-01-29T12:41:10;10.50;73.60
13721;DHT22;6932;51.438;5.470;2023-01-29T12:44:11;10.50;73.50
13721;DHT22;6932;51.438;5.470;2023-01-29T12:46:48;10.50;73.40
13721;DHT22;6932;51.438;5.470;2023-01-29T12:49:22;10.60;73.30
13721;DHT22;6932;51.438;5.470;2023-01-29T12:51:59;10.60;73.30
13721;DHT22;6932;51.438;5.470;2023-01-29T12:54:48;10.60;73.30
13721;DHT22;6932;51.438;5.470;2023-01-29T12:57:20;10.60;73.20
13721;DHT22;6932;51.438;5.470;2023-01-29T12:59:58;10.70;73.30
13721;DHT22;6932;51.438;5.470;2023-01-29T13:05:26;10.70;73.10
13721;DHT22;6932;51.438;5.470;2023-01-29T13:08:04;10.70;73.10
13721;DHT22;6932;51.438;5.470;2023-01-29T13:10:40;10.70;73.10
13721;DHT22;6932;51.438;5.470;2023-01-29T13:13:54;10.80;73.10
13721;DHT22;6932;51.438;5.470;2023-01-29T13:16:32;10.80;73.10
13721;DHT22;6932;51.438;5.470;2023-01-29T13:21:43;10.80;72.90
13721;DHT22;6932;51.438;5.470;2023-01-29T13:24:14;10.80;73.50
13721;DHT22;6932;51.438;5.470;2023-01-29T13:26:46;10.80;72.90
13721;DHT22;6932;51.438;5.470;2023-01-29T13:29:22;10.80;72.90
13721;DHT22;6932;51.438;5.470;2023-01-29T13:31:51;10.80;72.90
13721;DHT22;6932;51.438;5.470;2023-01-29T13:37:08;10.90;73.00
13721;DHT22;6932;51.438;5.470;2023-01-29T13:39:46;10.90;73.00
13721;DHT22;6932;51.438;5.470;2023-01-29T13:42:18;10.90;73.00
13721;DHT22;6932;51.438;5.470;2023-01-29T13:44:49;10.90;73.70
13721;DHT22;6932;51.438;5.470;2023-01-29T13:47:26;10.90;73.10
13721;DHT22;6932;51.438;5.470;2023-01-29T13:49:55;10.90;73.10
13721;DHT22;6932;51.438;5.470;2023-01-29T13:52:33;10.90;73.10
13721;DHT22;6932;51.438;5.470;2023-01-29T13:55:18;10.90;73.10
13721;DHT22;6932;51.438;5.470;2023-01-29T13:58:01;10.90;73.10
13721;DHT22;6932;51.438;5.470;2023-01-29T14:07:58;10.90;73.00
13721;DHT22;6932;51.438;5.470;2023-01-29T14:10:27;10.90;73.10
13721;DHT22;6932;51.438;5.470;2023-01-29T14:18:26;10.90;73.00
13721;DHT22;6932;51.438;5.470;2023-01-29T14:21:02;11.00;73.10
13721;DHT22;6932;51.438;5.470;2023-01-29T14:23:48;11.00;73.20
13721;DHT22;6932;51.438;5.470;2023-01-29T14:31:52;10.90;73.20
13721;DHT22;6932;51.438;5.470;2023-01-29T14:34:20;10.90;73.20
13721;DHT22;6932;51.438;5.470;2023-01-29T14:36:53;11.00;73.30
13721;DHT22;6932;51.438;5.470;2023-01-29T14:42:23;11.00;73.20
13721;DHT22;6932;51.438;5.470;2023-01-29T14:50:01;11.00;73.20
13721;DHT22;6932;51.438;5.470;2023-01-29T14:52:50;11.00;73.30
13721;DHT22;6932;51.438;5.470;2023-01-29T14:55:28;11.00;73.30
13721;DHT22;6932;51.438;5.470;2023-01-29T14:58:00;11.00;73.30
13721;DHT22;6932;51.438;5.470;2023-01-29T15:00:30;11.00;73.40
13721;DHT22;6932;51.438;5.470;2023-01-29T15:03:01;11.00;73.40
13721;DHT22;6932;51.438;5.470;2023-01-29T15:05:37;11.00;73.40
13721;DHT22;6932;51.438;5.470;2023-01-29T15:08:28;11.00;73.40
13721;DHT22;6932;51.438;5.470;2023-01-29T15:11:07;11.00;73.40
13721;DHT22;6932;51.438;5.470;2023-01-29T15:14:15;11.00;73.10
13721;DHT22;6932;51.438;5.470;2023-01-29T15:19:44;10.80;72.90
13721;DHT22;6932;51.438;5.470;2023-01-29T15:22:19;10.60;73.30
13721;DHT22;6932;51.438;5.470;2023-01-29T15:25:01;10.40;73.70
13721;DHT22;6932;51.438;5.470;2023-01-29T15:27:47;10.30;74.20
13721;DHT22;6932;51.438;5.470;2023-01-29T15:30:22;10.20;74.60
13721;DHT22;6932;51.438;5.470;2023-01-29T15:32:56;10.10;75.00
13721;DHT22;6932;51.438;5.470;2023-01-29T15:35:28;10.20;75.40
13721;DHT22;6932;51.438;5.470;2023-01-29T15:38:04;10.20;75.50
13721;DHT22;6932;51.438;5.470;2023-01-29T15:40:38;10.30;75.50
13721;DHT22;6932;51.438;5.470;2023-01-29T15:43:22;10.30;75.40
13721;DHT22;6932;51.438;5.470;2023-01-29T15:45:56;10.40;75.30
13721;DHT22;6932;51.438;5.470;2023-01-29T15:48:37;10.50;75.30
13721;DHT22;6932;51.438;5.470;2023-01-29T15:51:07;10.60;75.20
13721;DHT22;6932;51.438;5.470;2023-01-29T15:54:03;10.70;75.10
13721;DHT22;6932;51.438;5.470;2023-01-29T15:56:37;10.80;74.90
13721;DHT22;6932;51.438;5.470;2023-01-29T15:59:07;10.80;74.70
13721;DHT22;6932;51.438;5.470;2023-01-29T16:01:41;10.90;74.60
13721;DHT22;6932;51.438;5.470;2023-01-29T16:04:12;11.00;74.50
13721;DHT22;6932;51.438;5.470;2023-01-29T16:06:42;11.00;74.30
13721;DHT22;6932;51.438;5.470;2023-01-29T16:09:17;11.00;74.20
13721;DHT22;6932;51.438;5.470;2023-01-29T16:11:46;11.10;74.10
13721;DHT22;6932;51.438;5.470;2023-01-29T16:14:14;11.10;74.00
13721;DHT22;6932;51.438;5.470;2023-01-29T16:16:43;11.10;73.90
13721;DHT22;6932;51.438;5.470;2023-01-29T16:19:20;11.10;73.80
13721;DHT22;6932;51.438;5.470;2023-01-29T16:21:58;11.20;73.80
13721;DHT22;6932;51.438;5.470;2023-01-29T16:24:26;11.20;73.70
13721;DHT22;6932;51.438;5.470;2023-01-29T16:27:01;11.20;73.60
13721;DHT22;6932;51.438;5.470;2023-01-29T16:29:37;11.20;73.50
13721;DHT22;6932;51.438;5.470;2023-01-29T16:32:03;11.20;73.50
13721;DHT22;6932;51.438;5.470;2023-01-29T16:34:39;11.20;73.40
13721;DHT22;6932;51.438;5.470;2023-01-29T16:37:22;11.20;73.40
13721;DHT22;6932;51.438;5.470;2023-01-29T16:39:51;11.20;73.30
13721;DHT22;6932;51.438;5.470;2023-01-29T16:47:38;11.20;73.20
13721;DHT22;6932;51.438;5.470;2023-01-29T16:53:03;11.20;73.20
13721;DHT22;6932;51.438;5.470;2023-01-29T16:55:44;11.20;73.10
13721;DHT22;6932;51.438;5.470;2023-01-29T16:58:16;11.20;73.10
13721;DHT22;6932;51.438;5.470;2023-01-29T17:00:49;11.20;73.10
13721;DHT22;6932;51.438;5.470;2023-01-29T17:03:18;11.20;73.20
13721;DHT22;6932;51.438;5.470;2023-01-29T17:05:44;11.20;73.20
13721;DHT22;6932;51.438;5.470;2023-01-29T17:08:24;11.20;73.20
13721;DHT22;6932;51.438;5.470;2023-01-29T17:10:54;11.20;73.20
13721;DHT22;6932;51.438;5.470;2023-01-29T17:13:27;11.20;73.20
13721;DHT22;6932;51.438;5.470;2023-01-29T17:18:44;11.20;73.20
13721;DHT22;6932;51.438;5.470;2023-01-29T17:21:10;11.20;73.20
13721;DHT22;6932;51.438;5.470;2023-01-29T17:23:36;11.20;73.30
13721;DHT22;6932;51.438;5.470;2023-01-29T17:26:02;11.20;73.20
13721;DHT22;6932;51.438;5.470;2023-01-29T17:28:31;11.10;72.40
13721;DHT22;6932;51.438;5.470;2023-01-29T17:30:57;11.00;72.30
13721;DHT22;6932;51.438;5.470;2023-01-29T17:33:24;10.90;72.70
13721;DHT22;6932;51.438;5.470;2023-01-29T17:35:50;10.70;72.90
13721;DHT22;6932;51.438;5.470;2023-01-29T17:38:18;10.60;73.30
13721;DHT22;6932;51.438;5.470;2023-01-29T17:43:47;10.30;74.20
13721;DHT22;6932;51.438;5.470;2023-01-29T17:46:14;10.10;74.50
13721;DHT22;6932;51.438;5.470;2023-01-29T17:48:42;10.00;74.90
13721;DHT22;6932;51.438;5.470;2023-01-29T17:51:14;9.90;75.30
13721;DHT22;6932;51.438;5.470;2023-01-29T17:53:42;9.80;75.50
13721;DHT22;6932;51.438;5.470;2023-01-29T17:56:26;9.80;75.80
13721;DHT22;6932;51.438;5.470;2023-01-29T17:58:53;9.70;76.00
13721;DHT22;6932;51.438;5.470;2023-01-29T18:01:19;9.70;76.20
13721;DHT22;6932;51.438;5.470;2023-01-29T18:03:45;9.70;76.40
13721;DHT22;6932;51.438;5.470;2023-01-29T18:06:21;9.80;76.60
13721;DHT22;6932;51.438;5.470;2023-01-29T18:08:52;9.90;76.70
13721;DHT22;6932;51.438;5.470;2023-01-29T18:11:18;10.00;76.60
13721;DHT22;6932;51.438;5.470;2023-01-29T18:13:43;10.10;76.50
13721;DHT22;6932;51.438;5.470;2023-01-29T18:16:09;10.30;76.40
13721;DHT22;6932;51.438;5.470;2023-01-29T18:18:35;10.30;76.20
13721;DHT22;6932;51.438;5.470;2023-01-29T18:21:00;10.50;76.00
13721;DHT22;6932;51.438;5.470;2023-01-29T18:23:26;10.60;76.00
13721;DHT22;6932;51.438;5.470;2023-01-29T18:25:54;10.60;75.90
13721;DHT22;6932;51.438;5.470;2023-01-29T18:28:22;10.70;76.00
13721;DHT22;6932;51.438;5.470;2023-01-29T18:30:49;10.80;76.10
13721;DHT22;6932;51.438;5.470;2023-01-29T18:33:16;10.90;76.10
13721;DHT22;6932;51.438;5.470;2023-01-29T18:35:46;10.90;76.10
13721;DHT22;6932;51.438;5.470;2023-01-29T18:38:15;10.90;76.10
13721;DHT22;6932;51.438;5.470;2023-01-29T18:40:42;11.00;76.10
13721;DHT22;6932;51.438;5.470;2023-01-29T18:43:08;11.00;76.10
13721;DHT22;6932;51.438;5.470;2023-01-29T18:45:34;11.00;76.10
13721;DHT22;6932;51.438;5.470;2023-01-29T18:48:00;11.10;76.10
13721;DHT22;6932;51.438;5.470;2023-01-29T18:50:26;11.10;76.10